createdAt,value
2023-03-26T00:08:53.490Z,7.6
2023-03-26T00:18:55.562Z,7.6
2023-03-26T00:28:57.431Z,7.6
2023-03-26T00:38:59.219Z,7.7
2023-03-26T00:49:01.193Z,7.7
2023-03-26T00:59:03.494Z,7.7
2023-03-26T01:09:05.797Z,7.7
2023-03-26T01:29:10.203Z,7.7
2023-03-26T01:39:12.447Z,7.7
2023-03-26T01:49:15.133Z,7.8
2023-03-26T01:59:17.257Z,7.8
2023-03-26T02:29:33.988Z,7.7
2023-03-26T02:39:35.827Z,7.7
2023-03-26T02:49:37.713Z,7.7
2023-03-26T02:59:40.045Z,7.6
2023-03-26T03:09:42.621Z,7.6
2023-03-26T03:19:44.611Z,7.4
2023-03-26T03:29:46.506Z,7.4
2023-03-26T03:39:48.386Z,7.4
2023-03-26T03:59:53.041Z,7.4
2023-03-26T04:09:54.887Z,7.3
2023-03-26T04:19:56.780Z,7.3
2023-03-26T04:29:58.591Z,7.2
2023-03-26T04:40:00.495Z,7.2
2023-03-26T04:50:02.985Z,7.3
2023-03-26T05:00:05.051Z,7.2
2023-03-26T05:10:07.444Z,7.2
2023-03-26T05:20:09.818Z,7.2
2023-03-26T05:30:11.562Z,7.1
2023-03-26T05:40:13.421Z,7.2
2023-03-26T05:50:15.712Z,7.2
2023-03-26T06:00:17.696Z,7.2
2023-03-26T06:10:20.287Z,7.1
2023-03-26T06:20:22.359Z,7
2023-03-26T06:30:24.868Z,7
2023-03-26T06:40:27.230Z,7
2023-03-26T06:50:29.530Z,7
2023-03-26T07:00:31.938Z,7
2023-03-26T07:10:33.663Z,7.1
2023-03-26T07:20:35.573Z,7.3
2023-03-26T07:30:37.461Z,7.3
2023-03-26T07:40:39.260Z,7.4
2023-03-26T07:50:41.263Z,7.6
2023-03-26T08:00:43.933Z,7.5
2023-03-26T08:10:46.419Z,7.5
2023-03-26T08:20:48.681Z,7.4
2023-03-26T08:30:51.121Z,7.4
2023-03-26T08:40:53.418Z,7.5
2023-03-26T08:50:55.390Z,7.5
2023-03-26T09:00:57.854Z,7.8
2023-03-26T09:11:00.054Z,7.8
2023-03-26T09:21:01.831Z,7.8
2023-03-26T09:31:03.797Z,7.9
2023-03-26T09:41:06.116Z,7.6
2023-03-26T09:51:07.921Z,7.6
2023-03-26T10:01:10.281Z,7.6
2023-03-26T10:11:12.629Z,7.7
2023-03-26T10:21:14.433Z,7.8
2023-03-26T10:31:17.080Z,7.4
2023-03-26T10:41:19.047Z,7.5
2023-03-26T11:01:24.022Z,7.4
2023-03-26T11:11:26.594Z,7.4
2023-03-26T11:21:28.472Z,7.7
2023-03-26T11:31:30.174Z,7.8
2023-03-26T11:41:31.970Z,7.7
2023-03-26T11:51:33.684Z,7.8
2023-03-26T12:01:36.292Z,7.8
2023-03-26T12:11:38.736Z,7.9
2023-03-26T12:31:43.157Z,8
2023-03-26T13:01:49.535Z,8.1
2023-03-26T13:21:53.995Z,8.1
2023-03-26T13:41:58.864Z,8.1
2023-03-26T13:52:01.115Z,8.2
2023-03-26T14:02:03.607Z,8.1
2023-03-26T14:12:05.338Z,7.9
2023-03-26T14:22:07.526Z,7.9
2023-03-26T15:02:15.962Z,7.2
2023-03-26T15:12:17.773Z,7.2
2023-03-26T15:22:19.837Z,7.1
2023-03-26T15:32:22.078Z,7.1
2023-03-26T15:42:24.205Z,7
2023-03-26T15:52:26.412Z,7.1
2023-03-26T16:02:28.949Z,7.1
2023-03-26T16:12:31.283Z,7.1
2023-03-26T16:22:33.737Z,7.1
2023-03-26T16:32:35.565Z,7.2
2023-03-26T16:52:39.836Z,7.1
2023-03-26T17:02:42.394Z,7.1
2023-03-26T17:12:44.274Z,7
2023-03-26T17:22:47.064Z,6.9
2023-03-26T17:32:49.320Z,6.8
2023-03-26T17:42:51.584Z,6.7
2023-03-26T17:52:53.599Z,6.6
2023-03-26T18:12:58.670Z,6.4
2023-03-26T18:23:00.557Z,6.4
2023-03-26T18:33:02.301Z,6.3
2023-03-26T18:43:04.673Z,6.2
2023-03-26T19:03:09.901Z,6.1
2023-03-26T19:13:11.972Z,6.1
2023-03-26T19:23:14.352Z,6
2023-03-26T19:43:18.942Z,5.9
2023-03-26T20:03:23.037Z,5.4
2023-03-26T20:13:25.127Z,5.2
2023-03-26T20:23:27.542Z,5
2023-03-26T20:33:29.707Z,4.9
2023-03-26T20:43:31.673Z,4.6
2023-03-26T20:53:33.950Z,4.3
2023-03-26T21:03:36.188Z,4.1
2023-03-26T21:23:40.574Z,3.7
2023-03-26T22:03:49.191Z,3.4
2023-03-26T22:13:51.683Z,3.3
2023-03-26T22:23:54.239Z,3.2
2023-03-26T22:33:56.161Z,3.3
2023-03-26T22:43:59.506Z,3.1
2023-03-26T22:54:00.226Z,3.1
2023-03-26T23:04:02.790Z,3
2023-03-26T23:14:04.988Z,3
2023-03-26T23:24:07.018Z,2.9
2023-03-26T23:34:08.973Z,2.8
2023-03-26T23:44:11.277Z,2.6
2023-03-26T23:54:13.769Z,2.6
